createdAt,value
2018-06-12T00:01:20.487Z,99184.00
2018-06-12T00:03:48.047Z,99184.00
2018-06-12T00:06:15.627Z,99184.00
2018-06-12T00:08:43.166Z,99185.00
2018-06-12T00:11:10.724Z,99185.00
2018-06-12T00:13:38.235Z,99186.00
2018-06-12T00:16:05.799Z,99182.00
2018-06-12T00:18:33.355Z,99185.00
2018-06-12T00:21:01.015Z,99181.00
2018-06-12T00:23:28.591Z,99180.00
2018-06-12T00:25:56.223Z,99179.00
2018-06-12T00:28:23.787Z,99180.00
2018-06-12T00:30:51.338Z,99183.00
2018-06-12T00:33:19.104Z,99187.00
2018-06-12T00:35:46.692Z,99187.00
2018-06-12T00:38:14.239Z,99187.00
2018-06-12T00:40:42.334Z,99187.00
2018-06-12T00:43:10.283Z,99188.00
2018-06-12T00:45:37.912Z,99197.00
2018-06-12T00:48:05.576Z,99208.00
2018-06-12T00:50:33.132Z,99204.00
2018-06-12T00:53:00.746Z,99206.00
2018-06-12T00:55:28.387Z,99210.00
2018-06-12T00:57:55.924Z,99210.00
2018-06-12T01:00:23.549Z,99210.00
2018-06-12T01:02:51.207Z,99216.00
2018-06-12T01:05:18.787Z,99214.00
2018-06-12T01:07:46.339Z,99209.00
2018-06-12T01:10:13.907Z,99208.00
2018-06-12T01:12:41.586Z,99210.00
2018-06-12T01:15:09.251Z,99214.00
2018-06-12T01:17:36.830Z,99219.00
2018-06-12T01:20:04.456Z,99224.00
2018-06-12T01:22:32.077Z,99224.00
2018-06-12T01:24:59.818Z,99223.00
2018-06-12T01:27:27.383Z,99221.00
2018-06-12T01:29:54.968Z,99222.00
2018-06-12T01:32:22.539Z,99227.00
2018-06-12T01:34:50.092Z,99229.00
2018-06-12T01:37:17.771Z,99224.00
2018-06-12T01:39:45.375Z,99228.00
2018-06-12T01:42:12.944Z,99228.00
2018-06-12T01:44:40.533Z,99229.00
2018-06-12T01:47:08.231Z,99232.00
2018-06-12T01:49:35.776Z,99235.00
2018-06-12T01:52:03.334Z,99232.00
2018-06-12T01:54:30.949Z,99230.00
2018-06-12T01:56:58.596Z,99228.00
2018-06-12T01:59:26.379Z,99231.00
2018-06-12T02:01:54.022Z,99228.00
2018-06-12T02:04:21.738Z,99225.00
2018-06-12T02:06:51.480Z,99223.00
2018-06-12T02:09:19.442Z,99230.00
2018-06-12T02:11:47.123Z,99227.00
2018-06-12T02:14:14.690Z,99227.00
2018-06-12T02:16:42.308Z,99229.00
2018-06-12T02:19:09.988Z,99231.00
2018-06-12T02:21:37.564Z,99226.00
2018-06-12T02:24:05.307Z,99228.00
2018-06-12T02:26:32.898Z,99229.00
2018-06-12T02:29:00.476Z,99230.00
2018-06-12T02:31:28.024Z,99231.00
2018-06-12T02:33:55.625Z,99235.00
2018-06-12T02:36:23.217Z,99237.00
2018-06-12T02:38:50.839Z,99237.00
2018-06-12T02:41:18.414Z,99237.00
2018-06-12T02:43:45.988Z,99236.00
2018-06-12T02:46:13.631Z,99237.00
2018-06-12T02:48:41.237Z,99238.00
2018-06-12T02:51:08.883Z,99234.00
2018-06-12T02:53:36.459Z,99241.00
2018-06-12T02:56:04.305Z,99242.00
2018-06-12T02:58:31.897Z,99244.00
2018-06-12T03:00:59.465Z,99242.00
2018-06-12T03:03:27.126Z,99241.00
2018-06-12T03:05:55.053Z,99242.00
2018-06-12T03:08:22.641Z,99239.00
2018-06-12T03:10:50.224Z,99246.00
2018-06-12T03:13:17.860Z,99248.00
2018-06-12T03:15:45.524Z,99245.00
2018-06-12T03:18:13.112Z,99249.00
2018-06-12T03:20:44.109Z,99248.00
2018-06-12T03:23:11.716Z,99247.00
2018-06-12T03:25:39.387Z,99252.00
2018-06-12T03:28:07.323Z,99252.00
2018-06-12T03:30:34.925Z,99257.00
2018-06-12T03:33:02.519Z,99262.00
2018-06-12T03:35:30.083Z,99259.00
2018-06-12T03:37:57.699Z,99258.00
2018-06-12T03:40:25.289Z,99259.00
2018-06-12T03:42:52.934Z,99256.00
2018-06-12T03:45:20.550Z,99259.00
2018-06-12T03:47:48.144Z,99262.00
2018-06-12T03:50:15.820Z,99263.00
2018-06-12T03:52:43.415Z,99266.00
2018-06-12T03:55:11.091Z,99265.00
2018-06-12T03:57:38.765Z,99267.00
2018-06-12T04:00:06.463Z,99268.00
2018-06-12T04:02:34.249Z,99271.00
2018-06-12T04:05:01.945Z,99269.00
2018-06-12T04:07:29.751Z,99271.00
2018-06-12T04:09:57.352Z,99275.00
2018-06-12T04:12:24.988Z,99278.00
2018-06-12T04:14:52.740Z,99280.00
2018-06-12T04:17:20.392Z,99285.00
2018-06-12T04:19:47.971Z,99282.00
2018-06-12T04:22:15.529Z,99282.00
2018-06-12T04:24:43.161Z,99284.00
2018-06-12T04:27:10.785Z,99283.00
2018-06-12T04:29:38.443Z,99290.00
2018-06-12T04:32:06.068Z,99294.00
2018-06-12T04:34:33.635Z,99295.00
2018-06-12T04:37:01.219Z,99297.00
2018-06-12T04:39:28.800Z,99297.00
2018-06-12T04:41:56.435Z,99296.00
2018-06-12T04:44:24.036Z,99297.00
2018-06-12T04:46:51.673Z,99302.00
2018-06-12T04:49:19.344Z,99303.00
2018-06-12T04:51:46.973Z,99306.00
2018-06-12T04:54:14.545Z,99306.00
2018-06-12T04:56:42.184Z,99302.00
2018-06-12T04:59:09.816Z,99307.00
2018-06-12T05:01:38.033Z,99308.00
2018-06-12T05:04:05.646Z,99315.00
2018-06-12T05:06:33.251Z,99323.00
2018-06-12T05:09:00.868Z,99325.00
2018-06-12T05:11:28.484Z,99332.00
2018-06-12T05:13:56.130Z,99337.00
2018-06-12T05:16:23.760Z,99343.00
2018-06-12T05:18:51.390Z,99342.00
2018-06-12T05:21:19.100Z,99344.00
2018-06-12T05:23:46.732Z,99342.00
2018-06-12T05:26:14.341Z,99344.00
2018-06-12T05:28:41.917Z,99340.00
2018-06-12T05:31:09.534Z,99342.00
2018-06-12T05:33:38.132Z,99341.00
2018-06-12T05:36:05.711Z,99344.00
2018-06-12T05:38:33.382Z,99350.00
2018-06-12T05:41:01.000Z,99357.00
2018-06-12T06:03:10.334Z,99361.00
2018-06-12T06:05:38.852Z,99400.00
2018-06-12T06:08:06.461Z,99403.00
2018-06-12T06:10:34.072Z,99403.00
2018-06-12T06:13:01.830Z,99406.00
2018-06-12T06:15:29.416Z,99402.00
2018-06-12T06:17:57.203Z,99403.00
2018-06-12T06:20:24.809Z,99398.00
2018-06-12T06:22:52.400Z,99404.00
2018-06-12T06:25:20.017Z,99403.00
2018-06-12T06:27:47.649Z,99409.00
2018-06-12T06:30:15.314Z,99413.00
2018-06-12T06:32:42.916Z,99409.00
2018-06-12T06:35:10.516Z,99416.00
2018-06-12T06:37:38.106Z,99416.00
2018-06-12T06:40:05.751Z,99423.00
2018-06-12T06:42:33.402Z,99423.00
2018-06-12T06:45:01.036Z,99428.00
2018-06-12T06:47:28.768Z,99428.00
2018-06-12T06:49:56.364Z,99421.00
2018-06-12T06:52:24.079Z,99429.00
2018-06-12T06:54:51.744Z,99433.00
2018-06-12T06:57:19.403Z,99431.00
2018-06-12T06:59:47.042Z,99436.00
2018-06-12T07:02:14.632Z,99437.00
2018-06-12T07:04:42.239Z,99436.00
2018-06-12T07:07:10.110Z,99434.00
2018-06-12T07:09:37.724Z,99436.00
2018-06-12T07:12:05.401Z,99432.00
2018-06-12T07:14:33.265Z,99443.00
2018-06-12T07:17:00.983Z,99436.00
2018-06-12T07:19:28.699Z,99443.00
2018-06-12T07:21:56.255Z,99448.00
2018-06-12T07:24:23.913Z,99445.00
2018-06-12T07:26:51.573Z,99448.00
2018-06-12T07:29:19.357Z,99452.00
2018-06-12T07:31:46.967Z,99456.00
2018-06-12T07:34:14.566Z,99450.00
2018-06-12T07:36:42.195Z,99449.00
2018-06-12T07:39:09.792Z,99450.00
2018-06-12T07:41:37.875Z,99445.00
2018-06-12T07:44:06.499Z,99449.00
2018-06-12T07:46:34.073Z,99449.00
2018-06-12T07:49:01.741Z,99442.00
2018-06-12T07:51:29.353Z,99441.00
2018-06-12T07:53:56.959Z,99443.00
2018-06-12T07:56:24.574Z,99443.00
2018-06-12T07:58:52.239Z,99437.00
2018-06-12T08:01:19.844Z,99437.00
2018-06-12T08:03:47.496Z,99436.00
2018-06-12T08:06:15.113Z,99437.00
2018-06-12T08:08:42.675Z,99429.00
2018-06-12T08:11:10.284Z,99433.00
2018-06-12T08:13:37.865Z,99435.00
2018-06-12T08:16:05.472Z,99433.00
2018-06-12T08:18:33.103Z,99439.00
2018-06-12T08:21:00.692Z,99442.00
2018-06-12T08:23:28.300Z,99437.00
2018-06-12T08:25:55.875Z,99441.00
2018-06-12T08:28:23.543Z,99436.00
2018-06-12T08:30:51.130Z,99433.00
2018-06-12T08:33:18.741Z,99435.00
2018-06-12T08:35:46.323Z,99434.00
2018-06-12T08:38:13.912Z,99436.00
2018-06-12T08:40:41.483Z,99431.00
2018-06-12T08:43:09.440Z,99439.00
2018-06-12T08:45:37.097Z,99444.00
2018-06-12T08:48:04.864Z,99439.00
2018-06-12T08:50:32.556Z,99440.00
2018-06-12T08:53:00.240Z,99446.00
2018-06-12T08:55:27.843Z,99445.00
2018-06-12T08:57:55.472Z,99441.00
2018-06-12T09:00:23.098Z,99442.00
2018-06-12T09:02:50.684Z,99438.00
2018-06-12T09:05:18.256Z,99441.00
2018-06-12T09:07:45.966Z,99445.00
2018-06-12T09:10:13.568Z,99442.00
2018-06-12T09:12:41.172Z,99443.00
2018-06-12T09:15:08.762Z,99436.00
2018-06-12T09:17:36.379Z,99442.00
2018-06-12T09:20:04.156Z,99435.00
2018-06-12T09:22:31.790Z,99436.00
2018-06-12T09:24:59.917Z,99442.00
2018-06-12T09:27:27.542Z,99442.00
2018-06-12T09:29:55.136Z,99438.00
2018-06-12T09:32:22.713Z,99444.00
2018-06-12T09:34:50.288Z,99440.00
2018-06-12T09:37:17.887Z,99440.00
2018-06-12T09:39:45.568Z,99438.00
2018-06-12T09:42:14.228Z,99441.00
2018-06-12T09:44:41.789Z,99439.00
2018-06-12T09:47:09.387Z,99443.00
2018-06-12T09:49:36.970Z,99444.00
2018-06-12T09:52:04.628Z,99444.00
2018-06-12T09:54:32.300Z,99438.00
2018-06-12T09:56:59.964Z,99444.00
2018-06-12T09:59:27.604Z,99444.00
2018-06-12T10:01:55.187Z,99441.00
2018-06-12T10:04:22.827Z,99445.00
2018-06-12T10:06:50.448Z,99442.00
2018-06-12T10:09:18.072Z,99440.00
2018-06-12T10:11:45.696Z,99445.00
2018-06-12T10:14:13.287Z,99442.00
2018-06-12T10:16:40.872Z,99442.00
2018-06-12T10:19:08.459Z,99440.00
2018-06-12T10:21:36.016Z,99444.00
2018-06-12T10:24:03.756Z,99439.00
2018-06-12T10:26:31.355Z,99437.00
2018-06-12T10:28:58.969Z,99439.00
2018-06-12T10:31:26.637Z,99440.00
2018-06-12T10:33:54.209Z,99440.00
2018-06-12T10:36:21.830Z,99439.00
2018-06-12T10:38:49.682Z,99443.00
2018-06-12T10:41:17.301Z,99441.00
2018-06-12T10:43:44.958Z,99445.00
2018-06-12T10:46:12.608Z,99443.00
2018-06-12T10:48:40.240Z,99444.00
2018-06-12T10:51:07.944Z,99439.00
2018-06-12T10:53:35.509Z,99438.00
2018-06-12T10:56:03.175Z,99431.00
2018-06-12T10:58:30.743Z,99437.00
2018-06-12T11:00:58.372Z,99433.00
2018-06-12T11:03:26.001Z,99436.00
2018-06-12T11:05:53.696Z,99439.00
2018-06-12T11:08:21.271Z,99438.00
2018-06-12T11:10:48.878Z,99438.00
2018-06-12T11:13:16.504Z,99431.00
2018-06-12T11:15:44.088Z,99431.00
2018-06-12T11:18:11.739Z,99434.00
2018-06-12T11:20:39.328Z,99435.00
2018-06-12T11:23:06.935Z,99431.00
2018-06-12T11:25:34.516Z,99420.00
2018-06-12T11:28:02.232Z,99423.00
2018-06-12T11:33:04.304Z,99417.00
2018-06-12T11:35:31.810Z,99426.00
2018-06-12T11:37:59.367Z,99428.00
2018-06-12T11:40:27.784Z,99426.00
2018-06-12T11:42:55.351Z,99429.00
2018-06-12T11:45:22.988Z,99425.00
2018-06-12T11:47:50.573Z,99419.00
2018-06-12T11:50:18.979Z,99417.00
2018-06-12T11:52:46.604Z,99409.00
2018-06-12T11:55:20.300Z,99410.00
2018-06-12T11:57:47.895Z,99404.00
2018-06-12T12:00:15.533Z,99405.00
2018-06-12T12:02:43.144Z,99406.00
2018-06-12T12:05:10.714Z,99399.00
2018-06-12T12:07:38.389Z,99396.00
2018-06-12T12:10:05.996Z,99397.00
2018-06-12T12:12:33.859Z,99392.00
2018-06-12T12:15:01.501Z,99393.00
2018-06-12T12:17:29.055Z,99393.00
2018-06-12T12:19:56.665Z,99394.00
2018-06-12T12:22:24.228Z,99391.00
2018-06-12T12:24:51.856Z,99388.00
2018-06-12T12:27:19.435Z,99378.00
2018-06-12T12:29:47.302Z,99385.00
2018-06-12T12:32:14.885Z,99384.00
2018-06-12T12:34:42.512Z,99379.00
2018-06-12T12:37:10.076Z,99378.00
2018-06-12T12:39:37.639Z,99379.00
2018-06-12T12:42:05.215Z,99379.00
2018-06-12T12:44:32.768Z,99379.00
2018-06-12T12:47:00.328Z,99386.00
2018-06-12T12:49:27.895Z,99382.00
2018-06-12T12:51:55.513Z,99382.00
2018-06-12T12:54:23.041Z,99381.00
2018-06-12T12:56:50.661Z,99380.00
2018-06-12T12:59:18.292Z,99373.00
2018-06-12T13:01:45.903Z,99379.00
2018-06-12T13:04:13.888Z,99376.00
2018-06-12T13:06:41.484Z,99375.00
2018-06-12T13:09:09.113Z,99372.00
2018-06-12T13:11:36.779Z,99373.00
2018-06-12T13:14:04.405Z,99374.00
2018-06-12T13:16:31.964Z,99378.00
2018-06-12T13:18:59.615Z,99376.00
2018-06-12T13:21:27.210Z,99380.00
2018-06-12T13:23:54.768Z,99369.00
2018-06-12T13:26:22.344Z,99379.00
2018-06-12T13:28:49.905Z,99369.00
2018-06-12T13:31:17.511Z,99379.00
2018-06-12T13:33:45.110Z,99386.00
2018-06-12T13:36:13.385Z,99379.00
2018-06-12T13:38:41.582Z,99377.00
2018-06-12T13:41:09.374Z,99376.00
2018-06-12T13:43:37.004Z,99368.00
2018-06-12T13:46:04.979Z,99367.00
2018-06-12T13:48:32.720Z,99353.00
2018-06-12T13:51:00.393Z,99360.00
2018-06-12T13:53:28.226Z,99358.00
2018-06-12T13:55:55.849Z,99352.00
2018-06-12T13:58:23.791Z,99350.00
2018-06-12T14:00:51.435Z,99344.00
2018-06-12T14:03:18.992Z,99347.00
2018-06-12T14:05:47.520Z,99339.00
2018-06-12T14:08:15.422Z,99333.00
2018-06-12T14:10:43.346Z,99330.00
2018-06-12T14:13:11.010Z,99326.00
2018-06-12T14:15:38.730Z,99322.00
2018-06-12T14:18:06.352Z,99324.00
2018-06-12T14:20:33.903Z,99334.00
2018-06-12T14:23:01.630Z,99332.00
2018-06-12T14:25:29.335Z,99331.00
2018-06-12T14:27:56.988Z,99321.00
2018-06-12T14:30:24.569Z,99325.00
2018-06-12T14:32:52.113Z,99330.00
2018-06-12T14:35:19.689Z,99331.00
2018-06-12T14:37:48.053Z,99333.00
2018-06-12T14:40:15.706Z,99337.00
2018-06-12T14:42:43.257Z,99336.00
2018-06-12T14:45:10.882Z,99330.00
2018-06-12T14:47:38.465Z,99325.00
2018-06-12T14:50:06.059Z,99328.00
2018-06-12T14:52:33.688Z,99334.00
2018-06-12T14:55:01.275Z,99330.00
2018-06-12T14:57:28.860Z,99321.00
2018-06-12T14:59:56.497Z,99315.00
2018-06-12T15:02:24.167Z,99315.00
2018-06-12T15:04:51.752Z,99313.00
2018-06-12T15:07:19.335Z,99318.00
2018-06-12T15:09:46.992Z,99310.00
2018-06-12T15:12:14.557Z,99308.00
2018-06-12T15:14:42.131Z,99306.00
2018-06-12T15:17:09.728Z,99304.00
2018-06-12T15:19:37.419Z,99307.00
2018-06-12T15:22:05.014Z,99302.00
2018-06-12T15:24:32.756Z,99291.00
2018-06-12T15:27:00.377Z,99290.00
2018-06-12T15:29:28.103Z,99288.00
2018-06-12T15:31:55.706Z,99289.00
2018-06-12T15:34:23.317Z,99283.00
2018-06-12T15:36:50.905Z,99274.00
2018-06-12T15:39:19.834Z,99275.00
2018-06-12T15:41:47.508Z,99275.00
2018-06-12T15:44:15.092Z,99276.00
2018-06-12T15:46:42.696Z,99282.00
2018-06-12T15:49:10.328Z,99279.00
2018-06-12T15:51:37.986Z,99282.00
2018-06-12T15:54:05.996Z,99277.00
2018-06-12T15:56:33.789Z,99261.00
2018-06-12T15:59:01.452Z,99272.00
2018-06-12T16:01:29.072Z,99274.00
2018-06-12T16:03:56.667Z,99275.00
2018-06-12T16:06:24.360Z,99266.00
2018-06-12T16:08:51.956Z,99268.00
2018-06-12T16:11:19.596Z,99266.00
2018-06-12T16:13:47.187Z,99266.00
2018-06-12T16:16:14.790Z,99273.00
2018-06-12T16:18:42.383Z,99276.00
2018-06-12T16:21:10.017Z,99277.00
2018-06-12T16:23:37.591Z,99274.00
2018-06-12T16:26:05.281Z,99278.00
2018-06-12T16:28:32.892Z,99280.00
2018-06-12T16:31:00.497Z,99276.00
2018-06-12T16:33:28.146Z,99276.00
2018-06-12T16:35:55.795Z,99281.00
2018-06-12T16:38:23.408Z,99279.00
2018-06-12T16:40:51.329Z,99280.00
2018-06-12T16:43:18.976Z,99284.00
2018-06-12T16:45:46.628Z,99294.00
2018-06-12T16:48:14.240Z,99293.00
2018-06-12T16:50:41.857Z,99294.00
2018-06-12T16:53:09.451Z,99291.00
2018-06-12T16:55:37.037Z,99291.00
2018-06-12T16:58:04.716Z,99286.00
2018-06-12T17:00:32.396Z,99288.00
2018-06-12T17:02:59.999Z,99277.00
2018-06-12T17:05:27.960Z,99278.00
2018-06-12T17:07:55.613Z,99283.00
2018-06-12T17:10:23.257Z,99284.00
2018-06-12T17:12:50.963Z,99284.00
2018-06-12T17:15:18.548Z,99275.00
2018-06-12T17:17:46.274Z,99268.00
2018-06-12T17:20:13.964Z,99267.00
2018-06-12T17:22:41.624Z,99267.00
2018-06-12T17:25:09.299Z,99269.00
2018-06-12T17:27:36.992Z,99267.00
2018-06-12T17:30:05.296Z,99269.00
2018-06-12T17:32:32.972Z,99264.00
2018-06-12T17:35:00.628Z,99265.00
2018-06-12T17:37:28.328Z,99261.00
2018-06-12T17:39:55.983Z,99261.00
2018-06-12T17:42:23.793Z,99261.00
2018-06-12T17:44:51.475Z,99269.00
2018-06-12T17:47:19.200Z,99270.00
2018-06-12T17:49:46.883Z,99275.00
2018-06-12T17:52:14.487Z,99276.00
2018-06-12T17:54:42.245Z,99273.00
2018-06-12T17:57:09.853Z,99272.00
2018-06-12T17:59:37.474Z,99272.00
2018-06-12T18:02:05.693Z,99273.00
2018-06-12T18:04:33.276Z,99272.00
2018-06-12T18:07:00.925Z,99274.00
2018-06-12T18:09:28.573Z,99277.00
2018-06-12T18:11:56.221Z,99276.00
2018-06-12T18:14:23.931Z,99283.00
2018-06-12T18:16:51.567Z,99283.00
2018-06-12T18:19:19.207Z,99293.00
2018-06-12T18:21:46.896Z,99296.00
2018-06-12T18:24:14.616Z,99296.00
2018-06-12T18:26:42.404Z,99296.00
2018-06-12T18:29:10.055Z,99298.00
2018-06-12T18:31:37.728Z,99299.00
2018-06-12T18:34:05.429Z,99304.00
2018-06-12T18:36:33.107Z,99309.00
2018-06-12T18:39:00.750Z,99308.00
2018-06-12T18:41:28.366Z,99302.00
2018-06-12T18:43:56.382Z,99303.00
2018-06-12T18:46:24.383Z,99303.00
2018-06-12T18:48:52.125Z,99307.00
2018-06-12T18:51:19.757Z,99315.00
2018-06-12T18:53:47.452Z,99322.00
2018-06-12T18:56:15.076Z,99328.00
2018-06-12T18:58:42.696Z,99322.00
2018-06-12T19:01:10.292Z,99321.00
2018-06-12T19:03:37.976Z,99328.00
2018-06-12T19:06:06.502Z,99327.00
2018-06-12T19:08:34.185Z,99326.00
2018-06-12T19:11:01.842Z,99328.00
2018-06-12T19:13:29.577Z,99330.00
2018-06-12T19:15:57.235Z,99335.00
2018-06-12T19:18:25.134Z,99338.00
2018-06-12T19:20:53.124Z,99335.00
2018-06-12T19:23:20.729Z,99336.00
2018-06-12T19:25:48.336Z,99338.00
2018-06-12T19:28:16.016Z,99348.00
2018-06-12T19:30:43.707Z,99350.00
2018-06-12T19:33:11.340Z,99352.00
2018-06-12T19:35:38.937Z,99352.00
2018-06-12T19:38:06.641Z,99361.00
2018-06-12T19:40:34.272Z,99363.00
2018-06-12T19:43:01.935Z,99359.00
2018-06-12T19:45:29.926Z,99357.00
2018-06-12T19:47:57.527Z,99362.00
2018-06-12T19:50:25.107Z,99363.00
2018-06-12T19:52:52.757Z,99362.00
2018-06-12T19:55:20.381Z,99368.00
2018-06-12T19:57:48.040Z,99376.00
2018-06-12T20:00:15.715Z,99370.00
2018-06-12T20:02:43.308Z,99363.00
2018-06-12T20:05:10.957Z,99360.00
2018-06-12T20:07:38.652Z,99364.00
2018-06-12T20:10:06.352Z,99365.00
2018-06-12T20:12:33.959Z,99363.00
2018-06-12T20:15:01.642Z,99367.00
2018-06-12T20:17:29.235Z,99369.00
2018-06-12T20:19:56.875Z,99373.00
2018-06-12T20:22:24.504Z,99373.00
2018-06-12T20:24:52.146Z,99363.00
2018-06-12T20:27:19.759Z,99362.00
2018-06-12T20:29:47.355Z,99370.00
2018-06-12T20:32:15.049Z,99371.00
2018-06-12T20:34:42.655Z,99373.00
2018-06-12T20:37:10.252Z,99371.00
2018-06-12T20:39:37.907Z,99370.00
2018-06-12T20:42:05.618Z,99369.00
2018-06-12T20:44:33.239Z,99369.00
2018-06-12T20:47:00.815Z,99370.00
2018-06-12T20:49:28.475Z,99368.00
2018-06-12T20:51:56.173Z,99361.00
2018-06-12T20:54:23.803Z,99366.00
2018-06-12T20:56:51.436Z,99372.00
2018-06-12T20:59:19.056Z,99369.00
2018-06-12T21:01:46.711Z,99360.00
2018-06-12T21:04:14.368Z,99365.00
2018-06-12T21:06:42.082Z,99365.00
2018-06-12T21:09:09.714Z,99367.00
2018-06-12T21:11:37.327Z,99367.00
2018-06-12T21:14:05.009Z,99367.00
2018-06-12T21:16:33.080Z,99365.00
2018-06-12T21:19:00.679Z,99366.00
2018-06-12T21:21:28.361Z,99362.00
2018-06-12T21:23:56.020Z,99361.00
2018-06-12T21:26:23.594Z,99370.00
2018-06-12T21:28:51.252Z,99376.00
2018-06-12T21:31:18.844Z,99375.00
2018-06-12T21:33:46.493Z,99372.00
2018-06-12T21:36:14.155Z,99363.00
2018-06-12T21:38:41.808Z,99373.00
2018-06-12T21:41:09.449Z,99373.00
2018-06-12T21:43:37.128Z,99379.00
2018-06-12T21:46:05.251Z,99381.00
2018-06-12T21:48:32.891Z,99379.00
2018-06-12T21:51:00.568Z,99378.00
2018-06-12T21:53:28.267Z,99380.00
2018-06-12T21:55:55.887Z,99381.00
2018-06-12T21:58:23.487Z,99381.00
2018-06-12T22:00:51.068Z,99383.00
2018-06-12T22:03:18.765Z,99381.00
2018-06-12T22:05:46.328Z,99385.00
2018-06-12T22:08:14.813Z,99380.00
2018-06-12T22:10:42.417Z,99380.00
2018-06-12T22:13:10.020Z,99381.00
2018-06-12T22:15:37.697Z,99380.00
2018-06-12T22:18:06.256Z,99381.00
2018-06-12T22:20:33.905Z,99378.00
2018-06-12T22:23:01.524Z,99385.00
2018-06-12T22:25:29.176Z,99387.00
2018-06-12T22:27:56.805Z,99392.00
2018-06-12T22:30:24.448Z,99391.00
2018-06-12T22:32:52.055Z,99391.00
2018-06-12T22:35:19.767Z,99392.00
2018-06-12T22:37:47.427Z,99393.00
2018-06-12T22:40:14.987Z,99394.00
2018-06-12T22:42:42.637Z,99400.00
2018-06-12T22:45:10.241Z,99402.00
2018-06-12T22:47:37.847Z,99404.00
2018-06-12T22:50:05.510Z,99403.00
2018-06-12T22:52:33.109Z,99409.00
2018-06-12T22:55:00.742Z,99408.00
2018-06-12T22:57:28.319Z,99403.00
2018-06-12T22:59:55.978Z,99401.00
2018-06-12T23:02:23.595Z,99405.00
2018-06-12T23:04:51.167Z,99405.00
2018-06-12T23:07:18.797Z,99405.00
2018-06-12T23:09:46.435Z,99410.00
2018-06-12T23:12:14.011Z,99408.00
2018-06-12T23:14:41.631Z,99412.00
2018-06-12T23:17:09.235Z,99415.00
2018-06-12T23:19:54.818Z,99416.00
2018-06-12T23:22:22.368Z,99421.00
2018-06-12T23:24:49.991Z,99421.00
2018-06-12T23:27:17.575Z,99423.00
2018-06-12T23:29:45.203Z,99417.00
2018-06-12T23:32:12.808Z,99415.00
2018-06-12T23:34:40.396Z,99413.00
2018-06-12T23:37:08.089Z,99408.00
2018-06-12T23:39:35.737Z,99410.00
2018-06-12T23:42:03.413Z,99408.00
2018-06-12T23:44:30.967Z,99411.00
2018-06-12T23:46:58.565Z,99407.00
2018-06-12T23:49:26.151Z,99406.00
2018-06-12T23:51:53.869Z,99410.00
2018-06-12T23:54:21.449Z,99407.00
2018-06-12T23:56:49.141Z,99407.00
2018-06-12T23:59:16.752Z,99402.00
